createdAt,value
2019-03-15T00:01:38.863Z,97.10
2019-03-15T00:04:09.824Z,96.80
2019-03-15T00:06:40.722Z,96.80
2019-03-15T00:09:11.612Z,97.10
2019-03-15T00:11:42.520Z,96.90
2019-03-15T00:14:13.485Z,96.80
2019-03-15T00:16:44.365Z,96.80
2019-03-15T00:19:15.253Z,96.60
2019-03-15T00:21:46.138Z,96.50
2019-03-15T00:24:17.014Z,96.40
2019-03-15T00:26:48.149Z,96.30
2019-03-15T00:29:19.140Z,96.20
2019-03-15T00:31:51.029Z,95.90
2019-03-15T00:34:21.906Z,95.70
2019-03-15T00:36:52.917Z,95.60
2019-03-15T00:39:23.799Z,95.50
2019-03-15T00:41:54.671Z,95.20
2019-03-15T00:44:26.613Z,95.40
2019-03-15T00:46:57.557Z,95.30
2019-03-15T00:49:28.448Z,95.40
2019-03-15T00:52:00.591Z,95.20
2019-03-15T00:54:33.165Z,95.30
2019-03-15T00:57:04.227Z,95.10
2019-03-15T00:59:35.106Z,95.20
2019-03-15T01:02:05.957Z,95.40
2019-03-15T01:04:36.881Z,95.50
2019-03-15T01:07:07.858Z,95.60
2019-03-15T01:09:38.721Z,95.50
2019-03-15T01:12:09.555Z,95.40
2019-03-15T01:14:40.467Z,95.30
2019-03-15T01:17:11.526Z,95.30
2019-03-15T01:19:43.377Z,95.10
2019-03-15T01:22:14.289Z,95.20
2019-03-15T01:24:45.097Z,95.20
2019-03-15T01:27:16.079Z,95.40
2019-03-15T01:29:46.880Z,95.50
2019-03-15T01:32:17.857Z,95.50
2019-03-15T01:34:48.789Z,95.20
2019-03-15T01:37:19.785Z,95.30
2019-03-15T01:39:50.693Z,95.40
2019-03-15T01:42:22.241Z,95.50
2019-03-15T01:44:53.371Z,95.70
2019-03-15T01:47:24.565Z,95.70
2019-03-15T01:49:56.708Z,95.60
2019-03-15T01:52:27.619Z,95.70
2019-03-15T01:54:58.495Z,95.80
2019-03-15T01:57:29.373Z,95.80
2019-03-15T02:00:00.291Z,95.90
2019-03-15T02:02:32.493Z,95.70
2019-03-15T02:05:04.682Z,95.70
2019-03-15T02:07:35.693Z,95.50
2019-03-15T02:10:07.382Z,95.30
2019-03-15T02:12:38.118Z,95.10
2019-03-15T02:15:10.698Z,95.20
2019-03-15T02:17:41.599Z,94.90
2019-03-15T02:20:12.484Z,94.80
2019-03-15T02:22:43.381Z,94.80
2019-03-15T02:25:14.290Z,94.50
2019-03-15T02:27:45.157Z,94.80
2019-03-15T02:30:16.210Z,94.80
2019-03-15T02:32:48.246Z,94.80
2019-03-15T02:35:19.942Z,94.50
2019-03-15T02:37:51.293Z,94.40
2019-03-15T02:40:22.117Z,94.60
2019-03-15T02:42:53.262Z,94.00
2019-03-15T02:45:24.390Z,94.10
2019-03-15T02:47:55.323Z,94.70
2019-03-15T02:50:26.184Z,95.20
2019-03-15T02:52:57.486Z,95.20
2019-03-15T02:55:28.347Z,95.50
2019-03-15T02:57:59.262Z,95.30
2019-03-15T03:00:30.140Z,95.70
2019-03-15T03:03:01.062Z,96.40
2019-03-15T03:05:32.013Z,96.00
2019-03-15T03:08:02.900Z,95.80
2019-03-15T03:10:33.558Z,95.80
2019-03-15T03:13:05.486Z,95.70
2019-03-15T03:15:36.375Z,95.30
2019-03-15T03:18:07.610Z,96.00
2019-03-15T03:20:38.730Z,95.30
2019-03-15T03:23:10.563Z,95.40
2019-03-15T03:25:41.439Z,95.40
2019-03-15T03:28:12.469Z,95.60
2019-03-15T03:30:45.795Z,95.60
2019-03-15T03:33:16.114Z,95.50
2019-03-15T03:35:48.000Z,95.20
2019-03-15T03:38:18.981Z,95.40
2019-03-15T03:40:50.150Z,95.40
2019-03-15T03:43:22.136Z,95.30
2019-03-15T03:45:52.987Z,95.40
2019-03-15T03:48:23.852Z,95.50
2019-03-15T03:50:54.734Z,95.60
2019-03-15T03:53:26.754Z,95.20
2019-03-15T03:55:57.619Z,95.50
2019-03-15T03:58:28.604Z,95.20
2019-03-15T04:00:59.473Z,94.70
2019-03-15T04:03:30.438Z,94.80
2019-03-15T04:06:01.395Z,94.60
2019-03-15T04:08:32.380Z,94.50
2019-03-15T04:11:03.143Z,93.90
2019-03-15T04:13:34.095Z,94.10
2019-03-15T04:16:04.945Z,94.20
2019-03-15T04:18:37.224Z,94.20
2019-03-15T04:21:08.042Z,94.20
2019-03-15T04:23:39.820Z,94.40
2019-03-15T04:26:10.697Z,94.50
2019-03-15T04:28:41.744Z,94.40
2019-03-15T04:31:13.800Z,94.30
2019-03-15T04:33:45.237Z,94.50
2019-03-15T04:36:16.116Z,93.90
2019-03-15T04:38:46.930Z,93.80
2019-03-15T04:41:17.800Z,93.90
2019-03-15T04:43:48.777Z,93.70
2019-03-15T04:46:19.648Z,94.10
2019-03-15T04:48:50.784Z,93.90
2019-03-15T04:51:22.797Z,94.10
2019-03-15T04:53:54.509Z,94.10
2019-03-15T04:56:25.344Z,94.10
2019-03-15T04:58:56.143Z,93.40
2019-03-15T05:01:27.045Z,94.20
2019-03-15T05:03:57.841Z,93.80
2019-03-15T05:06:28.796Z,93.70
2019-03-15T05:08:59.851Z,93.50
2019-03-15T05:11:30.804Z,93.50
2019-03-15T05:14:01.998Z,93.30
2019-03-15T05:16:33.057Z,93.70
2019-03-15T05:19:03.993Z,93.30
2019-03-15T05:21:34.832Z,93.60
2019-03-15T05:24:06.104Z,93.30
2019-03-15T05:26:36.918Z,93.50
2019-03-15T05:29:07.827Z,93.30
2019-03-15T05:31:38.705Z,93.60
2019-03-15T05:34:09.698Z,93.10
2019-03-15T05:36:41.564Z,93.10
2019-03-15T05:39:12.497Z,93.20
2019-03-15T05:41:43.373Z,92.90
2019-03-15T05:44:14.288Z,93.20
2019-03-15T05:46:45.152Z,92.40
2019-03-15T05:49:16.161Z,92.90
2019-03-15T05:51:47.118Z,92.80
2019-03-15T05:54:17.912Z,92.30
2019-03-15T05:56:48.912Z,92.40
2019-03-15T05:59:20.062Z,92.60
2019-03-15T06:01:51.071Z,92.80
2019-03-15T06:04:22.005Z,92.50
2019-03-15T06:06:52.860Z,92.70
2019-03-15T06:09:23.765Z,92.70
2019-03-15T06:11:54.733Z,92.80
2019-03-15T06:14:26.847Z,92.40
2019-03-15T06:16:57.657Z,92.30
2019-03-15T06:19:30.284Z,92.00
2019-03-15T06:22:01.178Z,92.10
2019-03-15T06:24:32.136Z,92.00
2019-03-15T06:27:03.061Z,91.60
2019-03-15T06:29:33.981Z,91.80
2019-03-15T06:32:04.966Z,91.00
2019-03-15T06:34:35.825Z,91.10
2019-03-15T06:37:06.840Z,91.00
2019-03-15T06:39:39.531Z,91.20
2019-03-15T06:42:10.450Z,91.10
2019-03-15T06:44:41.229Z,91.10
2019-03-15T06:47:12.177Z,91.10
2019-03-15T06:49:43.100Z,90.80
2019-03-15T06:52:14.097Z,91.70
2019-03-15T06:54:46.889Z,91.60
2019-03-15T06:57:17.928Z,91.10
2019-03-15T06:59:48.896Z,90.60
2019-03-15T07:02:19.864Z,90.80
2019-03-15T07:04:50.781Z,90.70
2019-03-15T07:07:21.778Z,90.70
2019-03-15T07:09:52.666Z,91.00
2019-03-15T07:12:23.658Z,91.50
2019-03-15T07:14:54.630Z,91.60
2019-03-15T07:17:25.531Z,91.20
2019-03-15T07:19:56.394Z,91.60
2019-03-15T07:22:27.281Z,91.40
2019-03-15T07:24:58.157Z,92.10
2019-03-15T07:27:29.183Z,92.30
2019-03-15T07:30:00.307Z,91.50
2019-03-15T07:32:31.441Z,91.80
2019-03-15T07:35:02.463Z,91.80
2019-03-15T07:37:33.213Z,91.50
2019-03-15T07:40:04.308Z,91.50
2019-03-15T07:42:35.294Z,91.10
2019-03-15T07:45:06.403Z,91.20
2019-03-15T07:47:37.608Z,91.00
2019-03-15T07:50:09.424Z,90.60
2019-03-15T07:52:40.308Z,90.60
2019-03-15T07:55:11.498Z,90.80
2019-03-15T07:57:42.380Z,90.30
2019-03-15T08:00:25.625Z,89.00
2019-03-15T08:02:56.605Z,87.90
2019-03-15T08:05:27.526Z,88.20
2019-03-15T08:07:58.501Z,89.30
2019-03-15T08:10:29.381Z,88.00
2019-03-15T08:13:00.300Z,88.00
2019-03-15T08:15:31.442Z,87.70
2019-03-15T08:18:02.452Z,88.50
2019-03-15T08:20:33.344Z,89.00
2019-03-15T08:23:04.346Z,90.60
2019-03-15T08:25:35.196Z,90.00
2019-03-15T08:28:06.090Z,89.20
2019-03-15T08:30:37.033Z,90.00
2019-03-15T08:33:11.040Z,89.60
2019-03-15T08:35:42.165Z,90.30
2019-03-15T08:38:13.058Z,89.90
2019-03-15T08:40:43.808Z,89.70
2019-03-15T08:43:14.798Z,89.30
2019-03-15T08:45:45.974Z,89.20
2019-03-15T08:48:16.916Z,90.00
2019-03-15T08:50:47.784Z,88.60
2019-03-15T08:53:18.794Z,88.20
2019-03-15T08:55:49.805Z,89.10
2019-03-15T08:58:22.361Z,88.60
2019-03-15T09:00:54.756Z,87.50
2019-03-15T09:03:28.525Z,87.30
2019-03-15T09:05:59.684Z,88.30
2019-03-15T09:08:30.662Z,87.80
2019-03-15T09:11:01.533Z,87.70
2019-03-15T09:13:32.539Z,86.70
2019-03-15T09:16:03.537Z,87.20
2019-03-15T09:18:34.609Z,88.10
2019-03-15T09:21:05.552Z,88.10
2019-03-15T09:23:36.374Z,85.90
2019-03-15T09:26:10.316Z,85.20
2019-03-15T09:28:41.616Z,83.30
2019-03-15T09:31:12.522Z,84.40
2019-03-15T09:33:43.392Z,83.80
2019-03-15T09:36:14.360Z,84.10
2019-03-15T09:38:45.269Z,86.20
2019-03-15T09:41:30.622Z,84.60
2019-03-15T09:43:48.798Z,86.40
2019-03-15T09:46:19.797Z,86.20
2019-03-15T09:48:50.694Z,83.70
2019-03-15T09:51:21.626Z,83.90
2019-03-15T09:53:52.544Z,83.40
2019-03-15T09:56:23.536Z,83.00
2019-03-15T09:58:55.417Z,84.70
2019-03-15T10:01:34.699Z,81.20
2019-03-15T10:03:58.742Z,80.80
2019-03-15T10:06:29.608Z,80.20
2019-03-15T10:09:00.621Z,81.10
2019-03-15T10:11:31.585Z,82.30
2019-03-15T10:14:02.481Z,82.00
2019-03-15T10:16:33.407Z,83.80
2019-03-15T10:19:04.238Z,84.10
2019-03-15T10:21:35.085Z,84.10
2019-03-15T10:24:06.061Z,82.00
2019-03-15T10:26:36.928Z,82.40
2019-03-15T10:29:15.502Z,82.60
2019-03-15T10:31:40.394Z,81.40
2019-03-15T10:34:12.247Z,82.40
2019-03-15T10:36:43.224Z,82.60
2019-03-15T10:39:14.244Z,83.60
2019-03-15T10:41:45.135Z,84.10
2019-03-15T10:44:17.654Z,82.30
2019-03-15T10:46:50.242Z,82.00
2019-03-15T10:49:21.092Z,80.50
2019-03-15T10:51:52.084Z,82.50
2019-03-15T10:54:22.891Z,80.20
2019-03-15T10:56:53.559Z,83.10
2019-03-15T10:59:26.090Z,81.70
2019-03-15T11:01:56.881Z,81.50
2019-03-15T11:04:28.332Z,83.30
2019-03-15T11:06:59.348Z,81.80
2019-03-15T11:09:30.945Z,82.00
2019-03-15T11:12:02.670Z,81.90
2019-03-15T11:14:33.471Z,80.50
2019-03-15T11:17:04.304Z,79.10
2019-03-15T11:19:35.457Z,78.90
2019-03-15T11:22:06.390Z,78.80
2019-03-15T11:24:37.285Z,81.10
2019-03-15T11:27:08.033Z,80.50
2019-03-15T11:29:38.902Z,80.30
2019-03-15T11:32:09.684Z,80.10
2019-03-15T11:34:40.571Z,81.20
2019-03-15T11:37:11.308Z,79.80
2019-03-15T11:39:42.290Z,79.60
2019-03-15T11:42:14.978Z,79.80
2019-03-15T11:44:45.696Z,79.70
2019-03-15T11:47:16.808Z,81.20
2019-03-15T11:49:47.585Z,80.00
2019-03-15T11:52:19.494Z,80.80
2019-03-15T11:54:50.302Z,79.10
2019-03-15T11:57:21.134Z,79.60
2019-03-15T11:59:52.090Z,80.10
2019-03-15T12:02:22.786Z,79.20
2019-03-15T12:04:53.608Z,80.90
2019-03-15T12:07:24.221Z,80.10
2019-03-15T12:09:55.006Z,77.40
2019-03-15T12:12:25.725Z,78.80
2019-03-15T12:14:56.487Z,77.30
2019-03-15T12:17:27.503Z,77.60
2019-03-15T12:19:58.530Z,79.90
2019-03-15T12:22:29.546Z,76.60
2019-03-15T12:25:00.377Z,77.50
2019-03-15T12:27:34.038Z,75.40
2019-03-15T12:30:05.759Z,75.30
2019-03-15T12:32:36.611Z,74.30
2019-03-15T12:35:08.922Z,76.70
2019-03-15T12:37:39.983Z,76.40
2019-03-15T12:40:10.991Z,76.20
2019-03-15T12:42:41.866Z,74.30
2019-03-15T12:45:13.911Z,76.30
2019-03-15T12:47:45.075Z,76.90
2019-03-15T12:50:15.867Z,75.20
2019-03-15T12:52:48.334Z,75.20
2019-03-15T12:55:19.101Z,73.00
2019-03-15T12:57:49.980Z,75.80
2019-03-15T13:00:21.247Z,74.90
2019-03-15T13:02:52.056Z,76.20
2019-03-15T13:05:22.838Z,76.30
2019-03-15T13:07:53.538Z,78.20
2019-03-15T13:10:24.309Z,78.00
2019-03-15T13:12:54.867Z,80.30
2019-03-15T13:15:25.665Z,79.30
2019-03-15T13:17:56.249Z,79.10
2019-03-15T13:20:27.045Z,80.70
2019-03-15T13:22:57.881Z,80.10
2019-03-15T13:25:29.498Z,79.00
2019-03-15T13:28:00.188Z,81.30
2019-03-15T13:30:30.965Z,80.10
2019-03-15T13:33:01.758Z,80.20
2019-03-15T13:35:32.639Z,80.20
2019-03-15T13:38:03.323Z,81.30
2019-03-15T13:40:34.285Z,80.90
2019-03-15T13:43:04.997Z,80.60
2019-03-15T13:45:35.683Z,80.60
2019-03-15T13:48:06.557Z,83.50
2019-03-15T13:50:37.463Z,85.20
2019-03-15T13:53:08.239Z,87.20
2019-03-15T13:55:39.252Z,88.90
2019-03-15T13:58:10.017Z,89.50
2019-03-15T14:00:41.129Z,90.20
2019-03-15T14:03:11.895Z,90.70
2019-03-15T14:05:42.688Z,91.00
2019-03-15T14:08:13.356Z,91.20
2019-03-15T14:10:49.262Z,91.30
2019-03-15T14:13:16.791Z,91.20
2019-03-15T14:15:47.579Z,91.80
2019-03-15T14:18:21.321Z,91.60
2019-03-15T14:20:50.963Z,91.30
2019-03-15T14:23:21.672Z,91.40
2019-03-15T14:25:52.559Z,91.90
2019-03-15T14:28:23.288Z,92.00
2019-03-15T14:30:54.235Z,92.00
2019-03-15T14:33:24.996Z,92.50
2019-03-15T14:35:55.788Z,92.60
2019-03-15T14:38:26.430Z,92.90
2019-03-15T14:40:57.483Z,93.00
2019-03-15T14:43:28.279Z,93.40
2019-03-15T14:46:00.187Z,92.90
2019-03-15T14:48:31.000Z,93.40
2019-03-15T14:51:01.615Z,93.60
2019-03-15T14:53:32.494Z,93.90
2019-03-15T14:56:04.258Z,93.70
2019-03-15T14:58:35.090Z,93.80
2019-03-15T15:01:05.863Z,93.90
2019-03-15T15:03:36.558Z,94.00
2019-03-15T15:06:07.446Z,94.20
2019-03-15T15:08:38.225Z,94.20
2019-03-15T15:11:09.039Z,94.70
2019-03-15T15:13:39.901Z,94.90
2019-03-15T15:16:10.707Z,94.70
2019-03-15T15:18:41.468Z,94.60
2019-03-15T15:21:12.622Z,94.80
2019-03-15T15:23:43.336Z,95.20
2019-03-15T15:26:14.308Z,95.40
2019-03-15T15:28:44.994Z,95.50
2019-03-15T15:31:15.821Z,95.60
2019-03-15T15:33:46.785Z,95.80
2019-03-15T15:36:17.824Z,95.50
2019-03-15T15:38:48.587Z,95.50
2019-03-15T15:41:19.525Z,95.40
2019-03-15T15:43:52.297Z,95.30
2019-03-15T15:46:23.200Z,95.30
2019-03-15T15:48:53.950Z,95.40
2019-03-15T15:51:24.554Z,95.30
2019-03-15T15:53:55.597Z,95.10
2019-03-15T15:56:26.489Z,95.00
2019-03-15T15:58:57.227Z,95.10
2019-03-15T16:01:27.959Z,95.00
2019-03-15T16:03:58.738Z,95.00
2019-03-15T16:06:29.508Z,95.00
2019-03-15T16:09:00.134Z,94.80
2019-03-15T16:11:31.026Z,94.90
2019-03-15T16:14:01.728Z,95.10
2019-03-15T16:16:32.527Z,94.90
2019-03-15T16:19:03.537Z,94.80
2019-03-15T16:21:34.654Z,94.80
2019-03-15T16:24:05.628Z,94.80
2019-03-15T16:26:37.454Z,94.70
2019-03-15T16:29:08.320Z,94.70
2019-03-15T16:31:39.300Z,94.90
2019-03-15T16:34:10.197Z,94.60
2019-03-15T16:36:41.181Z,94.50
2019-03-15T16:39:11.937Z,94.70
2019-03-15T16:41:44.044Z,94.60
2019-03-15T16:44:14.863Z,94.30
2019-03-15T16:46:45.744Z,94.30
2019-03-15T16:49:16.632Z,94.10
2019-03-15T16:51:47.587Z,94.10
2019-03-15T16:54:19.513Z,93.80
2019-03-15T16:56:50.637Z,93.70
2019-03-15T16:59:21.528Z,93.60
2019-03-15T17:01:54.340Z,93.70
2019-03-15T17:04:25.949Z,94.00
2019-03-15T17:06:57.030Z,94.60
2019-03-15T17:09:28.030Z,95.60
2019-03-15T17:11:58.943Z,95.40
2019-03-15T17:14:29.788Z,94.70
2019-03-15T17:17:00.703Z,93.50
2019-03-15T17:19:31.696Z,93.40
2019-03-15T17:22:02.549Z,92.90
2019-03-15T17:24:33.619Z,93.10
2019-03-15T17:27:05.456Z,93.30
2019-03-15T17:29:36.326Z,92.30
2019-03-15T17:32:07.221Z,91.30
2019-03-15T17:34:38.111Z,88.60
2019-03-15T17:37:09.001Z,85.50
2019-03-15T17:39:39.889Z,85.00
2019-03-15T17:42:10.797Z,83.90
2019-03-15T17:44:41.645Z,82.30
2019-03-15T17:47:12.675Z,81.90
2019-03-15T17:49:43.741Z,83.30
2019-03-15T17:52:15.572Z,82.90
2019-03-15T17:54:46.471Z,83.20
2019-03-15T17:57:17.524Z,82.70
2019-03-15T18:00:25.258Z,81.40
2019-03-15T18:02:56.164Z,82.60
2019-03-15T18:05:27.114Z,83.40
2019-03-15T18:07:58.168Z,83.50
2019-03-15T18:10:32.395Z,83.80
2019-03-15T18:13:01.774Z,84.50
2019-03-15T18:15:32.748Z,85.50
2019-03-15T18:18:03.628Z,84.70
2019-03-15T18:20:34.546Z,84.70
2019-03-15T18:23:05.456Z,83.90
2019-03-15T18:25:36.281Z,84.20
2019-03-15T18:28:07.347Z,84.90
2019-03-15T18:30:38.299Z,84.30
2019-03-15T18:33:09.194Z,83.70
2019-03-15T18:35:40.142Z,83.80
2019-03-15T18:38:11.449Z,84.20
2019-03-15T18:40:42.389Z,84.20
2019-03-15T18:43:13.425Z,84.20
2019-03-15T18:45:44.237Z,84.20
2019-03-15T18:48:15.088Z,84.10
2019-03-15T18:50:45.926Z,83.60
2019-03-15T18:53:18.474Z,84.10
2019-03-15T18:55:50.498Z,81.40
2019-03-15T18:58:21.554Z,82.80
2019-03-15T19:00:52.521Z,78.80
2019-03-15T19:03:23.308Z,78.50
2019-03-15T19:05:54.161Z,76.70
2019-03-15T19:08:25.161Z,76.00
2019-03-15T19:10:56.049Z,79.20
2019-03-15T19:13:28.078Z,76.50
2019-03-15T19:15:59.060Z,75.10
2019-03-15T19:18:29.939Z,75.40
2019-03-15T19:21:01.870Z,75.20
2019-03-15T19:23:32.745Z,75.90
2019-03-15T19:26:03.645Z,74.90
2019-03-15T19:28:34.420Z,75.60
2019-03-15T19:31:06.657Z,75.30
2019-03-15T19:33:37.551Z,75.00
2019-03-15T19:36:08.421Z,74.10
2019-03-15T19:38:39.569Z,74.60
2019-03-15T19:41:10.410Z,76.00
2019-03-15T19:43:41.300Z,74.20
2019-03-15T19:46:12.185Z,75.30
2019-03-15T19:48:43.291Z,76.30
2019-03-15T19:51:14.260Z,75.30
2019-03-15T19:53:45.247Z,76.40
2019-03-15T19:56:17.140Z,75.20
2019-03-15T19:58:48.221Z,75.90
2019-03-15T20:01:20.002Z,76.70
2019-03-15T20:03:53.637Z,75.70
2019-03-15T20:06:24.686Z,76.30
2019-03-15T20:08:55.565Z,76.10
2019-03-15T20:11:26.453Z,74.70
2019-03-15T20:13:57.574Z,76.10
2019-03-15T20:16:28.565Z,75.80
2019-03-15T20:18:59.709Z,75.60
2019-03-15T20:21:30.722Z,75.50
2019-03-15T20:24:01.736Z,75.90
2019-03-15T20:26:32.767Z,73.90
2019-03-15T20:29:03.799Z,75.90
2019-03-15T20:31:34.905Z,73.20
2019-03-15T20:34:05.881Z,73.50
2019-03-15T20:36:36.768Z,73.60
2019-03-15T20:39:09.047Z,73.10
2019-03-15T20:41:40.146Z,71.90
2019-03-15T20:44:11.094Z,72.70
2019-03-15T20:46:42.045Z,74.00
2019-03-15T20:49:13.058Z,73.10
2019-03-15T20:51:43.912Z,74.00
2019-03-15T20:54:14.726Z,74.40
2019-03-15T20:56:45.585Z,75.10
2019-03-15T20:59:16.702Z,74.10
2019-03-15T21:01:48.999Z,75.80
2019-03-15T21:04:20.319Z,75.50
2019-03-15T21:06:51.324Z,74.70
2019-03-15T21:09:22.681Z,74.80
2019-03-15T21:11:53.674Z,75.00
2019-03-15T21:14:24.490Z,73.20
2019-03-15T21:16:55.375Z,73.10
2019-03-15T21:19:26.371Z,73.90
2019-03-15T21:21:57.112Z,73.80
2019-03-15T21:24:28.048Z,73.70
2019-03-15T21:26:59.917Z,74.00
2019-03-15T21:29:30.819Z,73.60
2019-03-15T21:32:02.102Z,74.40
2019-03-15T21:34:32.998Z,75.00
2019-03-15T21:37:04.664Z,74.70
2019-03-15T21:39:37.500Z,74.90
2019-03-15T21:42:08.223Z,75.00
2019-03-15T21:44:39.038Z,75.70
2019-03-15T21:47:09.908Z,76.00
2019-03-15T21:49:40.777Z,76.20
2019-03-15T21:52:11.755Z,76.10
2019-03-15T21:54:42.867Z,75.90
2019-03-15T21:57:13.833Z,73.60
2019-03-15T21:59:44.845Z,75.40
2019-03-15T22:02:15.711Z,75.10
2019-03-15T22:04:46.683Z,76.10
2019-03-15T22:07:17.660Z,74.30
2019-03-15T22:09:48.609Z,74.50
2019-03-15T22:12:19.536Z,75.50
2019-03-15T22:14:50.466Z,75.00
2019-03-15T22:17:22.761Z,76.40
2019-03-15T22:19:53.669Z,75.90
2019-03-15T22:22:24.452Z,77.10
2019-03-15T22:24:55.468Z,76.20
2019-03-15T22:27:26.300Z,75.40
2019-03-15T22:29:57.003Z,76.90
2019-03-15T22:32:27.941Z,75.40
2019-03-15T22:34:58.813Z,76.50
2019-03-15T22:37:29.596Z,77.00
2019-03-15T22:40:00.675Z,76.30
2019-03-15T22:42:33.490Z,77.20
2019-03-15T22:45:04.427Z,78.00
2019-03-15T22:47:35.330Z,77.50
2019-03-15T22:50:06.407Z,76.40
2019-03-15T22:52:37.387Z,77.90
2019-03-15T22:55:08.476Z,77.30
2019-03-15T22:57:39.361Z,75.70
2019-03-15T23:00:12.417Z,78.80
2019-03-15T23:02:45.053Z,77.90
2019-03-15T23:05:17.249Z,79.70
2019-03-15T23:07:48.232Z,79.20
2019-03-15T23:10:19.039Z,80.30
2019-03-15T23:12:49.822Z,79.40
2019-03-15T23:15:20.793Z,79.80
2019-03-15T23:17:51.714Z,80.70
2019-03-15T23:20:22.577Z,80.40
2019-03-15T23:22:54.882Z,80.90
2019-03-15T23:25:26.016Z,79.90
2019-03-15T23:27:57.476Z,80.80
2019-03-15T23:30:28.394Z,79.70
2019-03-15T23:33:01.508Z,79.90
2019-03-15T23:35:32.422Z,79.80
2019-03-15T23:38:04.434Z,80.40
2019-03-15T23:40:35.328Z,80.20
2019-03-15T23:43:06.405Z,81.10
2019-03-15T23:45:37.366Z,81.30
2019-03-15T23:48:08.182Z,81.40
2019-03-15T23:50:40.566Z,81.70
2019-03-15T23:53:11.374Z,81.00
2019-03-15T23:55:43.176Z,81.90
2019-03-15T23:58:14.088Z,81.00
